sensor_id;sensor_type;location;lat;lon;timestamp;P1;durP1;ratioP1;P2;durP2;ratioP2
72785;SDS011;60902;53.876;10.674;2023-07-20T00:00:03;3.65;;;1.60;;
72785;SDS011;60902;53.876;10.674;2023-07-20T00:00:15;3.65;;;1.60;;
72785;SDS011;60902;53.876;10.674;2023-07-20T00:00:27;3.95;;;1.60;;
72785;SDS011;60902;53.876;10.674;2023-07-20T00:00:38;3.92;;;1.58;;
72785;SDS011;60902;53.876;10.674;2023-07-20T00:00:49;3.85;;;1.60;;
72785;SDS011;60902;53.876;10.674;2023-07-20T00:01:03;3.70;;;1.70;;
72785;SDS011;60902;53.876;10.674;2023-07-20T00:01:15;3.72;;;1.63;;
72785;SDS011;60902;53.876;10.674;2023-07-20T00:01:26;3.80;;;1.53;;
72785;SDS011;60902;53.876;10.674;2023-07-20T00:01:37;4.00;;;1.50;;
72785;SDS011;60902;53.876;10.674;2023-07-20T00:01:48;3.92;;;1.60;;
72785;SDS011;60902;53.876;10.674;2023-07-20T00:01:59;3.85;;;1.60;;
72785;SDS011;60902;53.876;10.674;2023-07-20T00:02:10;3.45;;;1.50;;
72785;SDS011;60902;53.876;10.674;2023-07-20T00:02:21;3.38;;;1.55;;
72785;SDS011;60902;53.876;10.674;2023-07-20T00:02:32;3.72;;;1.67;;
72785;SDS011;60902;53.876;10.674;2023-07-20T00:02:43;3.67;;;1.60;;
72785;SDS011;60902;53.876;10.674;2023-07-20T00:03:09;3.65;;;1.50;;
72785;SDS011;60902;53.876;10.674;2023-07-20T00:03:22;3.67;;;1.63;;
72785;SDS011;60902;53.876;10.674;2023-07-20T00:03:35;3.55;;;1.42;;
72785;SDS011;60902;53.876;10.674;2023-07-20T00:03:46;3.22;;;1.30;;
72785;SDS011;60902;53.876;10.674;2023-07-20T00:04:06;3.50;;;1.58;;
72785;SDS011;60902;53.876;10.674;2023-07-20T00:04:17;3.45;;;1.58;;
72785;SDS011;60902;53.876;10.674;2023-07-20T00:04:27;3.30;;;1.50;;
72785;SDS011;60902;53.876;10.674;2023-07-20T00:04:40;3.42;;;1.40;;
72785;SDS011;60902;53.876;10.674;2023-07-20T00:04:50;3.40;;;1.33;;
72785;SDS011;60902;53.876;10.674;2023-07-20T00:05:01;3.20;;;1.30;;
72785;SDS011;60902;53.876;10.674;2023-07-20T00:05:12;3.28;;;1.30;;
72785;SDS011;60902;53.876;10.674;2023-07-20T00:05:23;3.35;;;1.38;;
72785;SDS011;60902;53.876;10.674;2023-07-20T00:05:34;3.72;;;1.50;;
72785;SDS011;60902;53.876;10.674;2023-07-20T00:05:45;3.75;;;1.48;;
72785;SDS011;60902;53.876;10.674;2023-07-20T00:05:56;3.63;;;1.40;;
72785;SDS011;60902;53.876;10.674;2023-07-20T00:06:07;3.28;;;1.40;;
72785;SDS011;60902;53.876;10.674;2023-07-20T00:06:18;3.72;;;1.35;;
72785;SDS011;60902;53.876;10.674;2023-07-20T00:06:30;3.88;;;1.42;;
72785;SDS011;60902;53.876;10.674;2023-07-20T00:06:41;3.95;;;1.50;;
72785;SDS011;60902;53.876;10.674;2023-07-20T00:06:52;4.30;;;1.55;;
72785;SDS011;60902;53.876;10.674;2023-07-20T00:07:03;4.22;;;1.60;;
72785;SDS011;60902;53.876;10.674;2023-07-20T00:07:15;4.13;;;1.52;;
72785;SDS011;60902;53.876;10.674;2023-07-20T00:07:26;3.90;;;1.60;;
72785;SDS011;60902;53.876;10.674;2023-07-20T00:07:37;3.55;;;1.40;;
72785;SDS011;60902;53.876;10.674;2023-07-20T00:07:48;3.20;;;1.20;;
72785;SDS011;60902;53.876;10.674;2023-07-20T00:08:02;3.08;;;1.10;;
72785;SDS011;60902;53.876;10.674;2023-07-20T00:08:13;3.20;;;1.20;;
72785;SDS011;60902;53.876;10.674;2023-07-20T00:08:25;3.60;;;1.42;;
72785;SDS011;60902;53.876;10.674;2023-07-20T00:08:36;3.95;;;1.50;;
72785;SDS011;60902;53.876;10.674;2023-07-20T00:08:47;4.13;;;1.50;;
72785;SDS011;60902;53.876;10.674;2023-07-20T00:08:58;4.18;;;1.55;;
72785;SDS011;60902;53.876;10.674;2023-07-20T00:09:09;3.55;;;1.45;;
72785;SDS011;60902;53.876;10.674;2023-07-20T00:09:20;3.58;;;1.42;;
72785;SDS011;60902;53.876;10.674;2023-07-20T00:09:31;3.10;;;1.33;;
72785;SDS011;60902;53.876;10.674;2023-07-20T00:09:42;3.38;;;1.52;;
72785;SDS011;60902;53.876;10.674;2023-07-20T00:09:53;3.47;;;1.52;;
72785;SDS011;60902;53.876;10.674;2023-07-20T00:10:04;3.67;;;1.50;;
72785;SDS011;60902;53.876;10.674;2023-07-20T00:10:16;3.40;;;1.33;;
72785;SDS011;60902;53.876;10.674;2023-07-20T00:10:28;3.28;;;1.35;;
72785;SDS011;60902;53.876;10.674;2023-07-20T00:10:40;3.63;;;1.40;;
72785;SDS011;60902;53.876;10.674;2023-07-20T00:10:51;3.72;;;1.48;;
72785;SDS011;60902;53.876;10.674;2023-07-20T00:11:01;3.53;;;1.30;;
72785;SDS011;60902;53.876;10.674;2023-07-20T00:11:12;3.50;;;1.30;;
72785;SDS011;60902;53.876;10.674;2023-07-20T00:11:26;3.72;;;1.40;;
72785;SDS011;60902;53.876;10.674;2023-07-20T00:11:37;3.75;;;1.33;;
72785;SDS011;60902;53.876;10.674;2023-07-20T00:11:49;3.47;;;1.27;;
72785;SDS011;60902;53.876;10.674;2023-07-20T00:12:01;3.67;;;1.50;;
72785;SDS011;60902;53.876;10.674;2023-07-20T00:12:12;3.55;;;1.45;;
72785;SDS011;60902;53.876;10.674;2023-07-20T00:12:24;3.53;;;1.48;;
72785;SDS011;60902;53.876;10.674;2023-07-20T00:12:35;3.45;;;1.55;;
72785;SDS011;60902;53.876;10.674;2023-07-20T00:12:46;3.53;;;1.65;;
72785;SDS011;60902;53.876;10.674;2023-07-20T00:12:57;3.80;;;1.60;;
72785;SDS011;60902;53.876;10.674;2023-07-20T00:13:08;3.58;;;1.42;;
72785;SDS011;60902;53.876;10.674;2023-07-20T00:13:19;3.65;;;1.40;;
72785;SDS011;60902;53.876;10.674;2023-07-20T00:13:31;3.70;;;1.40;;
72785;SDS011;60902;53.876;10.674;2023-07-20T00:13:43;3.83;;;1.55;;
72785;SDS011;60902;53.876;10.674;2023-07-20T00:13:54;3.50;;;1.50;;
72785;SDS011;60902;53.876;10.674;2023-07-20T00:14:05;3.50;;;1.40;;
72785;SDS011;60902;53.876;10.674;2023-07-20T00:14:17;3.38;;;1.30;;
72785;SDS011;60902;53.876;10.674;2023-07-20T00:14:28;3.42;;;1.30;;
72785;SDS011;60902;53.876;10.674;2023-07-20T00:14:39;3.30;;;1.40;;
72785;SDS011;60902;53.876;10.674;2023-07-20T00:14:50;3.35;;;1.50;;
72785;SDS011;60902;53.876;10.674;2023-07-20T00:15:04;3.80;;;1.50;;
72785;SDS011;60902;53.876;10.674;2023-07-20T00:15:15;4.57;;;1.60;;
72785;SDS011;60902;53.876;10.674;2023-07-20T00:15:26;4.78;;;1.70;;
72785;SDS011;60902;53.876;10.674;2023-07-20T00:15:38;4.60;;;1.63;;
72785;SDS011;60902;53.876;10.674;2023-07-20T00:15:50;4.40;;;1.55;;
72785;SDS011;60902;53.876;10.674;2023-07-20T00:16:01;3.72;;;1.50;;
72785;SDS011;60902;53.876;10.674;2023-07-20T00:16:12;3.65;;;1.40;;
72785;SDS011;60902;53.876;10.674;2023-07-20T00:16:23;3.90;;;1.45;;
72785;SDS011;60902;53.876;10.674;2023-07-20T00:16:34;4.05;;;1.40;;
72785;SDS011;60902;53.876;10.674;2023-07-20T00:16:45;3.92;;;1.48;;
72785;SDS011;60902;53.876;10.674;2023-07-20T00:16:56;3.75;;;1.40;;
72785;SDS011;60902;53.876;10.674;2023-07-20T00:17:08;4.05;;;1.40;;
72785;SDS011;60902;53.876;10.674;2023-07-20T00:17:19;4.10;;;1.40;;
72785;SDS011;60902;53.876;10.674;2023-07-20T00:17:30;3.88;;;1.45;;
72785;SDS011;60902;53.876;10.674;2023-07-20T00:17:41;4.05;;;1.40;;
72785;SDS011;60902;53.876;10.674;2023-07-20T00:17:52;3.83;;;1.30;;
72785;SDS011;60902;53.876;10.674;2023-07-20T00:18:03;3.60;;;1.30;;
72785;SDS011;60902;53.876;10.674;2023-07-20T00:18:14;3.17;;;1.30;;
72785;SDS011;60902;53.876;10.674;2023-07-20T00:18:25;3.33;;;1.35;;
72785;SDS011;60902;53.876;10.674;2023-07-20T00:18:36;3.63;;;1.30;;
72785;SDS011;60902;53.876;10.674;2023-07-20T00:18:47;3.63;;;1.30;;
72785;SDS011;60902;53.876;10.674;2023-07-20T00:18:58;3.72;;;1.42;;
72785;SDS011;60902;53.876;10.674;2023-07-20T00:19:11;3.80;;;1.52;;
72785;SDS011;60902;53.876;10.674;2023-07-20T00:19:22;3.35;;;1.30;;
72785;SDS011;60902;53.876;10.674;2023-07-20T00:19:35;3.10;;;1.25;;
72785;SDS011;60902;53.876;10.674;2023-07-20T00:19:46;3.30;;;1.33;;
72785;SDS011;60902;53.876;10.674;2023-07-20T00:19:57;3.65;;;1.35;;
72785;SDS011;60902;53.876;10.674;2023-07-20T00:20:08;3.78;;;1.48;;
72785;SDS011;60902;53.876;10.674;2023-07-20T00:20:20;3.50;;;1.40;;
72785;SDS011;60902;53.876;10.674;2023-07-20T00:20:32;3.78;;;1.40;;
72785;SDS011;60902;53.876;10.674;2023-07-20T00:20:43;3.80;;;1.40;;
72785;SDS011;60902;53.876;10.674;2023-07-20T00:20:54;3.60;;;1.40;;
72785;SDS011;60902;53.876;10.674;2023-07-20T00:21:05;3.70;;;1.50;;
72785;SDS011;60902;53.876;10.674;2023-07-20T00:21:16;3.80;;;1.50;;
72785;SDS011;60902;53.876;10.674;2023-07-20T00:21:27;3.70;;;1.50;;
72785;SDS011;60902;53.876;10.674;2023-07-20T00:21:39;3.70;;;1.42;;
72785;SDS011;60902;53.876;10.674;2023-07-20T00:21:50;3.50;;;1.30;;
72785;SDS011;60902;53.876;10.674;2023-07-20T00:22:02;3.53;;;1.30;;
72785;SDS011;60902;53.876;10.674;2023-07-20T00:22:14;3.50;;;1.42;;
72785;SDS011;60902;53.876;10.674;2023-07-20T00:22:25;3.83;;;1.50;;
72785;SDS011;60902;53.876;10.674;2023-07-20T00:22:36;3.83;;;1.48;;
72785;SDS011;60902;53.876;10.674;2023-07-20T00:22:47;3.50;;;1.45;;
72785;SDS011;60902;53.876;10.674;2023-07-20T00:23:01;3.70;;;1.50;;
72785;SDS011;60902;53.876;10.674;2023-07-20T00:23:12;3.80;;;1.48;;
72785;SDS011;60902;53.876;10.674;2023-07-20T00:23:23;4.03;;;1.50;;
72785;SDS011;60902;53.876;10.674;2023-07-20T00:23:35;3.92;;;1.50;;
72785;SDS011;60902;53.876;10.674;2023-07-20T00:23:46;3.80;;;1.40;;
72785;SDS011;60902;53.876;10.674;2023-07-20T00:23:57;3.75;;;1.40;;
72785;SDS011;60902;53.876;10.674;2023-07-20T00:24:08;3.90;;;1.50;;
72785;SDS011;60902;53.876;10.674;2023-07-20T00:24:19;3.97;;;1.52;;
72785;SDS011;60902;53.876;10.674;2023-07-20T00:24:30;4.07;;;1.65;;
72785;SDS011;60902;53.876;10.674;2023-07-20T00:24:42;4.05;;;1.65;;
72785;SDS011;60902;53.876;10.674;2023-07-20T00:24:53;3.80;;;1.60;;
72785;SDS011;60902;53.876;10.674;2023-07-20T00:25:05;4.18;;;1.55;;
72785;SDS011;60902;53.876;10.674;2023-07-20T00:25:17;3.75;;;1.48;;
72785;SDS011;60902;53.876;10.674;2023-07-20T00:25:28;3.72;;;1.30;;
72785;SDS011;60902;53.876;10.674;2023-07-20T00:25:39;3.38;;;1.20;;
72785;SDS011;60902;53.876;10.674;2023-07-20T00:25:50;3.60;;;1.42;;
72785;SDS011;60902;53.876;10.674;2023-07-20T00:26:01;3.75;;;1.60;;
72785;SDS011;60902;53.876;10.674;2023-07-20T00:26:12;3.53;;;1.70;;
72785;SDS011;60902;53.876;10.674;2023-07-20T00:26:23;3.58;;;1.50;;
72785;SDS011;60902;53.876;10.674;2023-07-20T00:26:34;3.70;;;1.45;;
72785;SDS011;60902;53.876;10.674;2023-07-20T00:26:45;3.60;;;1.30;;
72785;SDS011;60902;53.876;10.674;2023-07-20T00:26:56;3.60;;;1.50;;
72785;SDS011;60902;53.876;10.674;2023-07-20T00:27:08;3.58;;;1.40;;
72785;SDS011;60902;53.876;10.674;2023-07-20T00:27:19;3.38;;;1.30;;
72785;SDS011;60902;53.876;10.674;2023-07-20T00:27:30;3.22;;;1.33;;
72785;SDS011;60902;53.876;10.674;2023-07-20T00:27:41;3.90;;;1.52;;
72785;SDS011;60902;53.876;10.674;2023-07-20T00:27:52;3.83;;;1.50;;
72785;SDS011;60902;53.876;10.674;2023-07-20T00:28:03;3.58;;;1.40;;
72785;SDS011;60902;53.876;10.674;2023-07-20T00:28:14;3.25;;;1.30;;
72785;SDS011;60902;53.876;10.674;2023-07-20T00:28:25;3.33;;;1.25;;
72785;SDS011;60902;53.876;10.674;2023-07-20T00:28:36;3.45;;;1.35;;
72785;SDS011;60902;53.876;10.674;2023-07-20T00:28:48;3.42;;;1.30;;
72785;SDS011;60902;53.876;10.674;2023-07-20T00:29:01;3.80;;;1.30;;
72785;SDS011;60902;53.876;10.674;2023-07-20T00:29:13;3.60;;;1.30;;
72785;SDS011;60902;53.876;10.674;2023-07-20T00:29:24;3.80;;;1.42;;
72785;SDS011;60902;53.876;10.674;2023-07-20T00:29:34;3.97;;;1.55;;
72785;SDS011;60902;53.876;10.674;2023-07-20T00:29:45;3.95;;;1.50;;
72785;SDS011;60902;53.876;10.674;2023-07-20T00:29:56;3.75;;;1.40;;
72785;SDS011;60902;53.876;10.674;2023-07-20T00:30:07;3.30;;;1.40;;
72785;SDS011;60902;53.876;10.674;2023-07-20T00:30:19;3.70;;;1.65;;
72785;SDS011;60902;53.876;10.674;2023-07-20T00:30:30;3.70;;;1.67;;
72785;SDS011;60902;53.876;10.674;2023-07-20T00:30:41;3.53;;;1.45;;
72785;SDS011;60902;53.876;10.674;2023-07-20T00:30:53;3.00;;;1.23;;
72785;SDS011;60902;53.876;10.674;2023-07-20T00:31:04;3.00;;;1.20;;
72785;SDS011;60902;53.876;10.674;2023-07-20T00:31:15;3.08;;;1.20;;
72785;SDS011;60902;53.876;10.674;2023-07-20T00:31:26;3.20;;;1.20;;
72785;SDS011;60902;53.876;10.674;2023-07-20T00:31:39;3.50;;;1.20;;
72785;SDS011;60902;53.876;10.674;2023-07-20T00:31:50;3.77;;;1.20;;
72785;SDS011;60902;53.876;10.674;2023-07-20T00:32:01;3.67;;;1.25;;
72785;SDS011;60902;53.876;10.674;2023-07-20T00:32:14;3.55;;;1.38;;
72785;SDS011;60902;53.876;10.674;2023-07-20T00:32:26;3.50;;;1.55;;
72785;SDS011;60902;53.876;10.674;2023-07-20T00:32:36;3.42;;;1.48;;
72785;SDS011;60902;53.876;10.674;2023-07-20T00:32:48;3.33;;;1.40;;
72785;SDS011;60902;53.876;10.674;2023-07-20T00:32:59;3.40;;;1.40;;
72785;SDS011;60902;53.876;10.674;2023-07-20T00:33:11;3.28;;;1.30;;
72785;SDS011;60902;53.876;10.674;2023-07-20T00:33:22;3.17;;;1.17;;
72785;SDS011;60902;53.876;10.674;2023-07-20T00:33:36;3.78;;;1.40;;
72785;SDS011;60902;53.876;10.674;2023-07-20T00:33:47;4.15;;;1.60;;
72785;SDS011;60902;53.876;10.674;2023-07-20T00:33:58;3.47;;;1.58;;
72785;SDS011;60902;53.876;10.674;2023-07-20T00:34:10;3.33;;;1.38;;
72785;SDS011;60902;53.876;10.674;2023-07-20T00:34:21;3.20;;;1.00;;
72785;SDS011;60902;53.876;10.674;2023-07-20T00:34:34;3.03;;;1.02;;
72785;SDS011;60902;53.876;10.674;2023-07-20T00:34:45;3.20;;;1.20;;
72785;SDS011;60902;53.876;10.674;2023-07-20T00:34:55;3.67;;;1.33;;
72785;SDS011;60902;53.876;10.674;2023-07-20T00:35:06;3.80;;;1.40;;
72785;SDS011;60902;53.876;10.674;2023-07-20T00:35:18;3.70;;;1.50;;
72785;SDS011;60902;53.876;10.674;2023-07-20T00:35:28;3.85;;;1.40;;
72785;SDS011;60902;53.876;10.674;2023-07-20T00:35:39;3.87;;;1.40;;
72785;SDS011;60902;53.876;10.674;2023-07-20T00:35:50;3.90;;;1.50;;
72785;SDS011;60902;53.876;10.674;2023-07-20T00:36:01;3.60;;;1.48;;
72785;SDS011;60902;53.876;10.674;2023-07-20T00:36:12;3.78;;;1.38;;
72785;SDS011;60902;53.876;10.674;2023-07-20T00:36:23;3.67;;;1.30;;
72785;SDS011;60902;53.876;10.674;2023-07-20T00:36:36;3.25;;;1.40;;
72785;SDS011;60902;53.876;10.674;2023-07-20T00:36:47;3.50;;;1.73;;
72785;SDS011;60902;53.876;10.674;2023-07-20T00:36:59;3.88;;;1.73;;
72785;SDS011;60902;53.876;10.674;2023-07-20T00:37:10;3.92;;;1.80;;
72785;SDS011;60902;53.876;10.674;2023-07-20T00:37:21;3.60;;;1.40;;
72785;SDS011;60902;53.876;10.674;2023-07-20T00:37:31;3.40;;;1.20;;
72785;SDS011;60902;53.876;10.674;2023-07-20T00:37:42;3.42;;;1.30;;
72785;SDS011;60902;53.876;10.674;2023-07-20T00:37:53;3.40;;;1.45;;
72785;SDS011;60902;53.876;10.674;2023-07-20T00:38:04;3.35;;;1.58;;
72785;SDS011;60902;53.876;10.674;2023-07-20T00:38:16;3.60;;;1.63;;
72785;SDS011;60902;53.876;10.674;2023-07-20T00:38:27;3.63;;;1.60;;
72785;SDS011;60902;53.876;10.674;2023-07-20T00:38:38;3.67;;;1.55;;
72785;SDS011;60902;53.876;10.674;2023-07-20T00:38:50;3.28;;;1.35;;
72785;SDS011;60902;53.876;10.674;2023-07-20T00:39:02;3.35;;;1.33;;
72785;SDS011;60902;53.876;10.674;2023-07-20T00:39:13;3.72;;;1.35;;
72785;SDS011;60902;53.876;10.674;2023-07-20T00:39:24;3.83;;;1.30;;
72785;SDS011;60902;53.876;10.674;2023-07-20T00:39:35;3.35;;;1.13;;
72785;SDS011;60902;53.876;10.674;2023-07-20T00:39:45;3.55;;;1.33;;
72785;SDS011;60902;53.876;10.674;2023-07-20T00:39:57;3.95;;;1.50;;
72785;SDS011;60902;53.876;10.674;2023-07-20T00:40:08;3.72;;;1.55;;
72785;SDS011;60902;53.876;10.674;2023-07-20T00:40:20;3.42;;;1.27;;
72785;SDS011;60902;53.876;10.674;2023-07-20T00:40:35;3.13;;;1.10;;
72785;SDS011;60902;53.876;10.674;2023-07-20T00:40:49;3.92;;;1.48;;
72785;SDS011;60902;53.876;10.674;2023-07-20T00:41:00;4.30;;;1.73;;
72785;SDS011;60902;53.876;10.674;2023-07-20T00:41:11;4.07;;;1.67;;
72785;SDS011;60902;53.876;10.674;2023-07-20T00:41:23;3.60;;;1.48;;
72785;SDS011;60902;53.876;10.674;2023-07-20T00:41:34;3.15;;;1.13;;
72785;SDS011;60902;53.876;10.674;2023-07-20T00:41:44;3.40;;;1.27;;
72785;SDS011;60902;53.876;10.674;2023-07-20T00:41:57;3.70;;;1.45;;
72785;SDS011;60902;53.876;10.674;2023-07-20T00:42:08;3.47;;;1.40;;
72785;SDS011;60902;53.876;10.674;2023-07-20T00:42:18;3.40;;;1.35;;
72785;SDS011;60902;53.876;10.674;2023-07-20T00:42:29;3.20;;;1.30;;
72785;SDS011;60902;53.876;10.674;2023-07-20T00:42:41;3.40;;;1.35;;
72785;SDS011;60902;53.876;10.674;2023-07-20T00:42:51;3.67;;;1.23;;
72785;SDS011;60902;53.876;10.674;2023-07-20T00:43:02;3.78;;;1.23;;
72785;SDS011;60902;53.876;10.674;2023-07-20T00:43:14;3.65;;;1.25;;
72785;SDS011;60902;53.876;10.674;2023-07-20T00:43:25;3.20;;;1.50;;
72785;SDS011;60902;53.876;10.674;2023-07-20T00:43:36;3.17;;;1.60;;
72785;SDS011;60902;53.876;10.674;2023-07-20T00:43:47;3.37;;;1.60;;
72785;SDS011;60902;53.876;10.674;2023-07-20T00:43:59;3.85;;;1.42;;
72785;SDS011;60902;53.876;10.674;2023-07-20T00:44:10;3.83;;;1.40;;
72785;SDS011;60902;53.876;10.674;2023-07-20T00:44:22;3.83;;;1.30;;
72785;SDS011;60902;53.876;10.674;2023-07-20T00:44:33;3.97;;;1.35;;
72785;SDS011;60902;53.876;10.674;2023-07-20T00:44:45;4.10;;;1.35;;
72785;SDS011;60902;53.876;10.674;2023-07-20T00:44:55;4.18;;;1.55;;
72785;SDS011;60902;53.876;10.674;2023-07-20T00:45:07;3.90;;;1.50;;
72785;SDS011;60902;53.876;10.674;2023-07-20T00:45:18;3.70;;;1.35;;
72785;SDS011;60902;53.876;10.674;2023-07-20T00:45:29;3.95;;;1.40;;
72785;SDS011;60902;53.876;10.674;2023-07-20T00:45:40;3.90;;;1.30;;
72785;SDS011;60902;53.876;10.674;2023-07-20T00:45:52;4.50;;;1.35;;
72785;SDS011;60902;53.876;10.674;2023-07-20T00:46:04;4.13;;;1.45;;
72785;SDS011;60902;53.876;10.674;2023-07-20T00:46:16;3.60;;;1.40;;
72785;SDS011;60902;53.876;10.674;2023-07-20T00:46:27;3.30;;;1.38;;
72785;SDS011;60902;53.876;10.674;2023-07-20T00:46:38;3.25;;;1.20;;
72785;SDS011;60902;53.876;10.674;2023-07-20T00:46:51;3.67;;;1.48;;
72785;SDS011;60902;53.876;10.674;2023-07-20T00:47:03;4.28;;;1.48;;
72785;SDS011;60902;53.876;10.674;2023-07-20T00:47:14;4.20;;;1.40;;
72785;SDS011;60902;53.876;10.674;2023-07-20T00:47:25;4.38;;;1.45;;
72785;SDS011;60902;53.876;10.674;2023-07-20T00:47:37;3.55;;;1.50;;
72785;SDS011;60902;53.876;10.674;2023-07-20T00:47:49;3.22;;;1.30;;
72785;SDS011;60902;53.876;10.674;2023-07-20T00:48:00;3.38;;;1.30;;
72785;SDS011;60902;53.876;10.674;2023-07-20T00:48:12;3.75;;;1.23;;
72785;SDS011;60902;53.876;10.674;2023-07-20T00:48:24;3.97;;;1.30;;
72785;SDS011;60902;53.876;10.674;2023-07-20T00:48:36;3.42;;;1.25;;
72785;SDS011;60902;53.876;10.674;2023-07-20T00:48:47;3.45;;;1.40;;
72785;SDS011;60902;53.876;10.674;2023-07-20T00:48:58;3.63;;;1.50;;
72785;SDS011;60902;53.876;10.674;2023-07-20T00:49:12;3.80;;;1.45;;
72785;SDS011;60902;53.876;10.674;2023-07-20T00:49:23;3.70;;;1.27;;
72785;SDS011;60902;53.876;10.674;2023-07-20T00:49:34;3.70;;;1.20;;
72785;SDS011;60902;53.876;10.674;2023-07-20T00:49:45;3.78;;;1.20;;
72785;SDS011;60902;53.876;10.674;2023-07-20T00:49:56;3.78;;;1.30;;
72785;SDS011;60902;53.876;10.674;2023-07-20T00:50:07;3.60;;;1.33;;
72785;SDS011;60902;53.876;10.674;2023-07-20T00:50:20;3.40;;;1.38;;
72785;SDS011;60902;53.876;10.674;2023-07-20T00:50:31;3.20;;;1.20;;
72785;SDS011;60902;53.876;10.674;2023-07-20T00:50:43;3.15;;;1.30;;
72785;SDS011;60902;53.876;10.674;2023-07-20T00:50:55;3.50;;;1.55;;
72785;SDS011;60902;53.876;10.674;2023-07-20T00:51:08;3.28;;;1.40;;
72785;SDS011;60902;53.876;10.674;2023-07-20T00:51:21;3.10;;;1.30;;
72785;SDS011;60902;53.876;10.674;2023-07-20T00:51:34;3.42;;;1.42;;
72785;SDS011;60902;53.876;10.674;2023-07-20T00:51:45;3.60;;;1.60;;
72785;SDS011;60902;53.876;10.674;2023-07-20T00:51:56;3.55;;;1.58;;
72785;SDS011;60902;53.876;10.674;2023-07-20T00:52:08;3.50;;;1.35;;
72785;SDS011;60902;53.876;10.674;2023-07-20T00:52:24;3.75;;;1.17;;
72785;SDS011;60902;53.876;10.674;2023-07-20T00:52:37;3.80;;;1.45;;
72785;SDS011;60902;53.876;10.674;2023-07-20T00:52:49;3.47;;;1.40;;
72785;SDS011;60902;53.876;10.674;2023-07-20T00:53:00;3.10;;;1.15;;
72785;SDS011;60902;53.876;10.674;2023-07-20T00:53:15;3.35;;;1.20;;
72785;SDS011;60902;53.876;10.674;2023-07-20T00:53:27;3.72;;;1.30;;
72785;SDS011;60902;53.876;10.674;2023-07-20T00:53:39;3.65;;;1.25;;
72785;SDS011;60902;53.876;10.674;2023-07-20T00:53:50;3.60;;;1.23;;
72785;SDS011;60902;53.876;10.674;2023-07-20T00:54:01;3.55;;;1.20;;
72785;SDS011;60902;53.876;10.674;2023-07-20T00:54:13;3.40;;;1.20;;
72785;SDS011;60902;53.876;10.674;2023-07-20T00:54:25;3.38;;;1.20;;
72785;SDS011;60902;53.876;10.674;2023-07-20T00:54:36;3.38;;;1.27;;
72785;SDS011;60902;53.876;10.674;2023-07-20T00:54:47;4.00;;;1.50;;
72785;SDS011;60902;53.876;10.674;2023-07-20T00:54:59;4.32;;;1.60;;
72785;SDS011;60902;53.876;10.674;2023-07-20T00:55:12;3.95;;;1.50;;
72785;SDS011;60902;53.876;10.674;2023-07-20T00:55:24;3.53;;;1.33;;
72785;SDS011;60902;53.876;10.674;2023-07-20T00:55:35;3.55;;;1.48;;
72785;SDS011;60902;53.876;10.674;2023-07-20T00:55:46;3.70;;;1.50;;
72785;SDS011;60902;53.876;10.674;2023-07-20T00:55:57;3.70;;;1.47;;
72785;SDS011;60902;53.876;10.674;2023-07-20T00:56:08;3.67;;;1.42;;
72785;SDS011;60902;53.876;10.674;2023-07-20T00:56:19;3.17;;;1.30;;
72785;SDS011;60902;53.876;10.674;2023-07-20T00:56:31;3.33;;;1.35;;
72785;SDS011;60902;53.876;10.674;2023-07-20T00:56:43;3.33;;;1.38;;
72785;SDS011;60902;53.876;10.674;2023-07-20T00:56:54;3.40;;;1.30;;
72785;SDS011;60902;53.876;10.674;2023-07-20T00:57:06;3.50;;;1.20;;
72785;SDS011;60902;53.876;10.674;2023-07-20T00:57:17;3.47;;;1.17;;
72785;SDS011;60902;53.876;10.674;2023-07-20T00:57:29;3.38;;;1.20;;
72785;SDS011;60902;53.876;10.674;2023-07-20T00:57:40;3.22;;;1.20;;
72785;SDS011;60902;53.876;10.674;2023-07-20T00:57:52;3.35;;;1.23;;
72785;SDS011;60902;53.876;10.674;2023-07-20T00:58:03;3.30;;;1.20;;
72785;SDS011;60902;53.876;10.674;2023-07-20T00:58:14;3.20;;;1.20;;
72785;SDS011;60902;53.876;10.674;2023-07-20T00:58:27;3.25;;;1.20;;
72785;SDS011;60902;53.876;10.674;2023-07-20T00:58:38;3.50;;;1.42;;
72785;SDS011;60902;53.876;10.674;2023-07-20T00:58:50;3.30;;;1.45;;
72785;SDS011;60902;53.876;10.674;2023-07-20T00:59:02;3.13;;;1.38;;
72785;SDS011;60902;53.876;10.674;2023-07-20T00:59:13;3.20;;;1.30;;
72785;SDS011;60902;53.876;10.674;2023-07-20T00:59:25;3.70;;;1.27;;
72785;SDS011;60902;53.876;10.674;2023-07-20T00:59:36;3.83;;;1.42;;
72785;SDS011;60902;53.876;10.674;2023-07-20T00:59:47;3.60;;;1.52;;
72785;SDS011;60902;53.876;10.674;2023-07-20T00:59:58;3.53;;;1.45;;
72785;SDS011;60902;53.876;10.674;2023-07-20T01:00:10;3.33;;;1.30;;
72785;SDS011;60902;53.876;10.674;2023-07-20T01:00:22;4.70;;;1.40;;
72785;SDS011;60902;53.876;10.674;2023-07-20T01:00:34;4.97;;;1.50;;
72785;SDS011;60902;53.876;10.674;2023-07-20T01:00:45;4.30;;;1.33;;
72785;SDS011;60902;53.876;10.674;2023-07-20T01:00:57;3.72;;;1.38;;
72785;SDS011;60902;53.876;10.674;2023-07-20T01:01:08;3.43;;;1.30;;
72785;SDS011;60902;53.876;10.674;2023-07-20T01:01:19;3.25;;;1.40;;
72785;SDS011;60902;53.876;10.674;2023-07-20T01:01:30;3.30;;;1.43;;
72785;SDS011;60902;53.876;10.674;2023-07-20T01:01:41;3.47;;;1.42;;
72785;SDS011;60902;53.876;10.674;2023-07-20T01:01:52;3.42;;;1.38;;
72785;SDS011;60902;53.876;10.674;2023-07-20T01:02:03;3.30;;;1.20;;
72785;SDS011;60902;53.876;10.674;2023-07-20T01:02:15;3.08;;;1.10;;
72785;SDS011;60902;53.876;10.674;2023-07-20T01:02:26;3.17;;;1.10;;
72785;SDS011;60902;53.876;10.674;2023-07-20T01:02:37;3.25;;;1.20;;
72785;SDS011;60902;53.876;10.674;2023-07-20T01:02:48;3.60;;;1.40;;
72785;SDS011;60902;53.876;10.674;2023-07-20T01:02:59;3.47;;;1.37;;
72785;SDS011;60902;53.876;10.674;2023-07-20T01:03:10;3.30;;;1.30;;
72785;SDS011;60902;53.876;10.674;2023-07-20T01:03:21;3.45;;;1.25;;
72785;SDS011;60902;53.876;10.674;2023-07-20T01:03:32;3.55;;;1.30;;
72785;SDS011;60902;53.876;10.674;2023-07-20T01:03:43;4.25;;;1.50;;
72785;SDS011;60902;53.876;10.674;2023-07-20T01:03:54;4.13;;;1.55;;
72785;SDS011;60902;53.876;10.674;2023-07-20T01:04:06;3.72;;;1.45;;
72785;SDS011;60902;53.876;10.674;2023-07-20T01:04:18;3.40;;;1.30;;
72785;SDS011;60902;53.876;10.674;2023-07-20T01:04:30;3.80;;;1.30;;
72785;SDS011;60902;53.876;10.674;2023-07-20T01:04:41;3.92;;;1.27;;
72785;SDS011;60902;53.876;10.674;2023-07-20T01:04:52;3.72;;;1.30;;
72785;SDS011;60902;53.876;10.674;2023-07-20T01:05:04;3.47;;;1.27;;
72785;SDS011;60902;53.876;10.674;2023-07-20T01:05:16;3.05;;;1.20;;
72785;SDS011;60902;53.876;10.674;2023-07-20T01:05:30;3.20;;;1.20;;
72785;SDS011;60902;53.876;10.674;2023-07-20T01:05:51;3.35;;;1.25;;
72785;SDS011;60902;53.876;10.674;2023-07-20T01:06:14;3.20;;;1.30;;
72785;SDS011;60902;53.876;10.674;2023-07-20T01:06:36;3.65;;;1.25;;
72785;SDS011;60902;53.876;10.674;2023-07-20T01:06:57;4.00;;;1.30;;
72785;SDS011;60902;53.876;10.674;2023-07-20T01:07:13;3.53;;;1.35;;
72785;SDS011;60902;53.876;10.674;2023-07-20T01:07:31;3.47;;;1.25;;
72785;SDS011;60902;53.876;10.674;2023-07-20T01:07:46;3.50;;;1.30;;
72785;SDS011;60902;53.876;10.674;2023-07-20T01:08:06;3.30;;;1.33;;
72785;SDS011;60902;53.876;10.674;2023-07-20T01:08:24;3.30;;;1.30;;
72785;SDS011;60902;53.876;10.674;2023-07-20T01:08:43;4.22;;;1.40;;
72785;SDS011;60902;53.876;10.674;2023-07-20T01:09:02;4.50;;;1.40;;
72785;SDS011;60902;53.876;10.674;2023-07-20T01:09:19;3.70;;;1.27;;
72785;SDS011;60902;53.876;10.674;2023-07-20T01:09:39;3.30;;;1.23;;
72785;SDS011;60902;53.876;10.674;2023-07-20T01:09:57;3.25;;;1.30;;